Alamogordo White Sands Regional Airport
KALM : now visible

Airfield :











YOU CAN JOIN US ON...

 
LOGIN :

Register | Disclaimer

   EN    FR    IT 

 









Legend :    VFR   Marginal VFR   IFR   Intensive IFR   Very Intensive IFR
Visi :
Ceiling :
>= 8 km
>= 3000ft
5 to 8 km
1000 to 3000 ft
1500m to 5 km
500 to 1000 ft
800 to 1500m
200 to 500 ft
< 800m
< 200 ft
Symbols :   Thunderstorms  Fog  Heavy snow  Heavy precipitations  Wind > 20 kt







- Airport Elevation : 4200 ft
- IATA code : ALM


KALM - Alamogordo White Sands Regional

CURRENT METAR :
  • 261535Z AUTO 06003KT 10SM CLR 22/05 A3018 RMK AO2

EXPIRED METARs :
  • 261515Z AUTO 01005KT 10SM CLR 22/05 A3018 RMK AO2
  • 261455Z AUTO 02007KT 10SM CLR 21/05 A3018 RMK AO2
  • 261435Z AUTO 01006KT 10SM CLR 20/06 A3018 RMK AO2
  • 261415Z AUTO 35005KT 10SM CLR 19/05 A3018 RMK AO2
  • 261355Z AUTO 34004KT 10SM CLR 17/05 A3018 RMK AO2
  • 261335Z AUTO 31005KT 10SM CLR 17/05 A3018 RMK AO2
  • 261315Z AUTO 33005KT 10SM CLR 15/05 A3017 RMK AO2
  • 261255Z AUTO 05003KT 10SM CLR 11/05 A3016 RMK AO2

TAF N/A
KZAB FIR / North America



MET'MAP, your aeronautical weather chart ! - Copyright ORBIFLY December 2007 - Disclaimer

ORBIFLY MET'MAP TEAM :

Programming & Development : Alexandra Zaïnal
Concept & Development : Baudouin d'Aumeries
Co-Development & Prog : Marc-Olivier Méhu
Technical & hardware support : Manuel Goepfert

Contact : metmap@orbifly.com




SOURCES & CREDITS :

   NOAA       Earth
Advisory